createdAt,value
2018-09-13T00:01:17.786Z,21.50
2018-09-13T00:03:46.245Z,21.50
2018-09-13T00:06:14.683Z,21.60
2018-09-13T00:08:43.159Z,21.40
2018-09-13T00:11:11.617Z,21.30
2018-09-13T00:13:40.112Z,21.30
2018-09-13T00:16:08.589Z,21.20
2018-09-13T00:18:37.809Z,21.30
2018-09-13T00:21:06.480Z,21.30
2018-09-13T00:23:34.928Z,21.30
2018-09-13T00:26:03.396Z,21.10
2018-09-13T00:28:31.852Z,21.10
2018-09-13T00:31:00.336Z,21.00
2018-09-13T00:33:28.779Z,21.00
2018-09-13T00:35:57.257Z,20.80
2018-09-13T00:38:25.713Z,20.80
2018-09-13T00:40:54.201Z,20.70
2018-09-13T00:43:22.644Z,20.70
2018-09-13T00:45:51.201Z,20.60
2018-09-13T00:48:19.659Z,20.60
2018-09-13T00:50:48.144Z,20.60
2018-09-13T00:53:16.605Z,20.50
2018-09-13T00:55:45.087Z,20.50
2018-09-13T00:58:13.548Z,20.40
2018-09-13T01:00:42.043Z,20.40
2018-09-13T01:03:10.484Z,20.40
2018-09-13T01:05:38.970Z,20.30
2018-09-13T01:08:07.437Z,20.30
2018-09-13T01:10:35.952Z,20.30
2018-09-13T01:13:04.437Z,20.20
2018-09-13T01:15:32.920Z,20.20
2018-09-13T01:18:01.400Z,20.10
2018-09-13T01:20:29.872Z,20.10
2018-09-13T01:22:58.333Z,20.10
2018-09-13T01:25:26.828Z,20.00
2018-09-13T01:27:55.285Z,19.90
2018-09-13T01:30:23.760Z,19.90
2018-09-13T01:32:52.216Z,19.80
2018-09-13T01:35:20.680Z,19.80
2018-09-13T01:37:49.153Z,19.70
2018-09-13T01:40:17.601Z,19.70
2018-09-13T01:42:46.102Z,19.70
2018-09-13T01:45:14.557Z,19.60
2018-09-13T01:47:43.029Z,19.60
2018-09-13T01:50:11.488Z,19.60
2018-09-13T01:52:39.956Z,19.60
2018-09-13T01:55:08.441Z,19.60
2018-09-13T01:57:36.921Z,19.60
2018-09-13T02:00:05.456Z,19.50
2018-09-13T02:02:33.940Z,19.50
2018-09-13T02:05:02.404Z,19.40
2018-09-13T02:07:30.960Z,19.40
2018-09-13T02:09:59.412Z,19.40
2018-09-13T02:12:27.885Z,19.40
2018-09-13T02:14:56.335Z,19.30
2018-09-13T02:17:24.888Z,19.30
2018-09-13T02:19:53.336Z,19.20
2018-09-13T02:22:21.784Z,19.20
2018-09-13T02:24:50.250Z,19.20
2018-09-13T02:27:18.701Z,19.10
2018-09-13T02:29:47.160Z,19.10
2018-09-13T02:32:15.608Z,19.10
2018-09-13T02:34:44.092Z,19.00
2018-09-13T02:37:12.596Z,19.00
2018-09-13T02:39:41.066Z,19.00
2018-09-13T02:42:09.605Z,19.00
2018-09-13T02:44:38.053Z,19.00
2018-09-13T02:47:06.544Z,18.90
2018-09-13T02:49:35.008Z,18.90
2018-09-13T02:52:03.463Z,18.80
2018-09-13T02:54:32.764Z,18.90
2018-09-13T02:57:01.248Z,18.80
2018-09-13T02:59:29.687Z,18.80
2018-09-13T03:01:58.115Z,18.80
2018-09-13T03:04:26.572Z,18.70
2018-09-13T03:06:54.995Z,18.80
2018-09-13T03:09:23.447Z,18.70
2018-09-13T03:11:51.879Z,18.70
2018-09-13T03:14:20.352Z,18.70
2018-09-13T03:16:48.803Z,18.70
2018-09-13T03:19:17.252Z,18.70
2018-09-13T03:21:45.699Z,18.70
2018-09-13T03:24:14.147Z,18.60
2018-09-13T03:26:42.677Z,18.60
2018-09-13T03:29:11.191Z,18.60
2018-09-13T03:31:39.652Z,18.50
2018-09-13T03:34:08.151Z,18.50
2018-09-13T03:36:36.622Z,18.50
2018-09-13T03:39:08.083Z,18.50
2018-09-13T03:41:36.555Z,18.50
2018-09-13T03:44:04.995Z,18.50
2018-09-13T03:46:33.624Z,18.40
2018-09-13T03:49:02.135Z,18.40
2018-09-13T03:51:30.589Z,18.40
2018-09-13T03:53:59.057Z,18.50
2018-09-13T03:56:27.776Z,18.40
2018-09-13T03:58:56.264Z,18.40
2018-09-13T04:01:24.767Z,18.30
2018-09-13T04:03:53.345Z,18.30
2018-09-13T04:06:21.852Z,18.30
2018-09-13T04:08:50.308Z,18.30
2018-09-13T04:11:18.767Z,18.30
2018-09-13T04:13:47.248Z,18.30
2018-09-13T04:16:15.684Z,18.20
2018-09-13T04:18:44.210Z,18.30
2018-09-13T04:21:12.628Z,18.30
2018-09-13T04:23:41.132Z,18.30
2018-09-13T04:26:09.603Z,18.20
2018-09-13T04:28:38.067Z,18.30
2018-09-13T04:31:06.552Z,18.30
2018-09-13T04:33:35.088Z,18.30
2018-09-13T04:36:03.570Z,18.20
2018-09-13T04:38:32.012Z,18.20
2018-09-13T04:41:00.464Z,18.30
2018-09-13T04:43:28.984Z,18.30
2018-09-13T04:45:57.475Z,18.30
2018-09-13T04:48:25.940Z,18.20
2018-09-13T04:50:54.392Z,18.20
2018-09-13T04:53:22.843Z,18.20
2018-09-13T04:55:51.355Z,18.20
2018-09-13T04:58:19.889Z,18.20
2018-09-13T05:00:48.351Z,18.20
2018-09-13T05:03:16.783Z,18.10
2018-09-13T05:05:45.243Z,18.10
2018-09-13T05:08:13.694Z,18.10
2018-09-13T05:10:42.157Z,18.10
2018-09-13T05:13:10.616Z,18.10
2018-09-13T05:15:39.056Z,18.10
2018-09-13T05:18:07.592Z,18.10
2018-09-13T05:20:36.048Z,18.10
2018-09-13T05:23:04.552Z,18.20
2018-09-13T05:25:33.045Z,18.10
2018-09-13T05:28:02.644Z,18.10
2018-09-13T05:30:31.189Z,18.10
2018-09-13T05:32:59.707Z,18.10
2018-09-13T05:35:28.245Z,18.10
2018-09-13T05:37:56.752Z,18.10
2018-09-13T05:40:25.241Z,18.10
2018-09-13T05:42:53.754Z,18.10
2018-09-13T05:45:23.593Z,18.20
2018-09-13T05:47:52.056Z,18.20
2018-09-13T05:50:20.552Z,18.20
2018-09-13T05:52:48.983Z,18.30
2018-09-13T05:55:17.431Z,18.30
2018-09-13T05:57:46.688Z,18.40
2018-09-13T06:00:15.229Z,18.50
2018-09-13T06:02:44.312Z,18.50
2018-09-13T06:05:12.859Z,18.50
2018-09-13T06:07:41.393Z,18.50
2018-09-13T06:10:09.941Z,18.60
2018-09-13T06:12:38.490Z,18.60
2018-09-13T06:15:07.083Z,18.60
2018-09-13T06:17:35.641Z,18.60
2018-09-13T06:20:04.206Z,18.70
2018-09-13T06:22:32.694Z,18.80
2018-09-13T06:25:01.131Z,18.80
2018-09-13T06:27:29.588Z,18.90
2018-09-13T06:29:58.058Z,18.90
2018-09-13T06:32:26.528Z,19.00
2018-09-13T06:34:55.196Z,19.10
2018-09-13T06:37:23.685Z,19.10
2018-09-13T06:39:52.217Z,19.20
2018-09-13T06:42:20.785Z,19.20
2018-09-13T06:44:49.343Z,19.30
2018-09-13T06:47:17.832Z,19.40
2018-09-13T06:49:46.372Z,19.40
2018-09-13T06:52:14.890Z,19.50
2018-09-13T06:54:43.380Z,19.60
2018-09-13T06:57:11.840Z,19.60
2018-09-13T06:59:40.292Z,19.70
2018-09-13T07:02:10.062Z,19.80
2018-09-13T07:04:38.519Z,19.80
2018-09-13T07:07:07.659Z,19.90
2018-09-13T07:09:36.124Z,19.90
2018-09-13T07:12:05.641Z,20.00
2018-09-13T07:14:34.158Z,20.10
2018-09-13T07:17:02.689Z,20.20
2018-09-13T07:19:31.163Z,20.20
2018-09-13T07:22:00.011Z,20.30
2018-09-13T07:24:31.268Z,20.30
2018-09-13T07:26:59.759Z,20.40
2018-09-13T07:29:28.266Z,20.40
2018-09-13T07:31:56.724Z,20.50
2018-09-13T07:34:25.202Z,20.60
2018-09-13T07:36:53.713Z,20.60
2018-09-13T07:39:22.164Z,20.70
2018-09-13T07:41:50.628Z,20.80
2018-09-13T07:44:19.108Z,20.80
2018-09-13T07:46:47.546Z,20.80
2018-09-13T07:49:16.146Z,21.00
2018-09-13T07:51:44.541Z,21.00
2018-09-13T07:54:13.082Z,21.20
2018-09-13T07:56:41.663Z,21.20
2018-09-13T07:59:10.188Z,21.30
2018-09-13T08:01:38.724Z,21.40
2018-09-13T08:04:07.646Z,21.60
2018-09-13T08:06:36.312Z,21.70
2018-09-13T08:09:08.320Z,21.90
2018-09-13T08:11:36.827Z,21.90
2018-09-13T08:14:05.289Z,22.00
2018-09-13T08:16:33.743Z,22.00
2018-09-13T08:19:02.232Z,22.10
2018-09-13T08:21:30.767Z,22.20
2018-09-13T08:23:59.491Z,22.30
2018-09-13T08:26:27.953Z,22.30
2018-09-13T08:28:56.423Z,22.20
2018-09-13T08:31:24.856Z,22.20
2018-09-13T08:33:53.356Z,22.30
2018-09-13T08:36:21.817Z,22.20
2018-09-13T08:38:51.333Z,22.20
2018-09-13T08:41:19.791Z,22.30
2018-09-13T08:43:48.224Z,22.50
2018-09-13T08:46:19.724Z,22.70
2018-09-13T08:48:49.027Z,23.00
2018-09-13T08:51:17.447Z,23.10
2018-09-13T08:53:45.908Z,23.30
2018-09-13T08:56:14.371Z,23.40
2018-09-13T08:58:42.815Z,23.50
2018-09-13T09:01:11.236Z,23.60
2018-09-13T09:03:39.658Z,23.70
2018-09-13T09:06:08.484Z,23.70
2018-09-13T09:08:37.072Z,23.80
2018-09-13T09:11:05.792Z,23.70
2018-09-13T09:13:34.304Z,23.70
2018-09-13T09:16:02.747Z,23.70
2018-09-13T09:18:31.229Z,23.60
2018-09-13T09:20:59.680Z,23.50
2018-09-13T09:23:28.119Z,23.30
2018-09-13T09:25:56.586Z,23.10
2018-09-13T09:28:25.068Z,23.20
2018-09-13T09:30:53.575Z,23.00
2018-09-13T09:33:22.454Z,22.90
2018-09-13T09:35:51.006Z,22.80
2018-09-13T09:38:19.533Z,22.90
2018-09-13T09:40:48.066Z,23.00
2018-09-13T09:43:16.562Z,23.10
2018-09-13T09:45:45.092Z,23.10
2018-09-13T09:48:13.699Z,23.00
2018-09-13T09:50:42.133Z,22.80
2018-09-13T09:53:10.604Z,22.70
2018-09-13T09:55:39.081Z,22.90
2018-09-13T09:58:07.536Z,23.10
2018-09-13T10:00:41.460Z,23.20
2018-09-13T10:03:09.908Z,23.10
2018-09-13T10:05:38.356Z,23.20
2018-09-13T10:08:06.792Z,23.40
2018-09-13T10:10:35.247Z,23.30
2018-09-13T10:13:03.680Z,23.10
2018-09-13T10:15:37.439Z,23.10
2018-09-13T10:18:11.304Z,23.10
2018-09-13T10:20:45.072Z,23.00
2018-09-13T10:23:18.868Z,23.00
2018-09-13T10:26:51.554Z,23.00
2018-09-13T10:29:25.396Z,23.00
2018-09-13T10:31:59.083Z,23.00
2018-09-13T10:34:32.976Z,23.00
2018-09-13T10:37:06.844Z,23.10
2018-09-13T10:39:40.664Z,23.00
2018-09-13T10:42:14.523Z,23.00
2018-09-13T10:44:48.315Z,23.10
2018-09-13T10:47:22.160Z,23.10
2018-09-13T10:49:56.024Z,23.20
2018-09-13T10:52:25.429Z,23.30
2018-09-13T10:54:53.863Z,23.20
2018-09-13T10:57:27.728Z,23.20
2018-09-13T10:59:56.278Z,23.30
2018-09-13T11:02:24.820Z,23.30
2018-09-13T11:04:53.283Z,23.40
2018-09-13T11:07:21.727Z,23.50
2018-09-13T11:09:50.232Z,23.50
2018-09-13T11:12:22.951Z,23.50
2018-09-13T11:14:58.604Z,23.60
2018-09-13T11:17:27.828Z,24.00
2018-09-13T11:19:56.381Z,24.40
2018-09-13T11:22:24.913Z,24.80
2018-09-13T11:24:53.489Z,25.00
2018-09-13T11:27:22.005Z,25.40
2018-09-13T11:29:50.526Z,26.10
2018-09-13T11:32:19.003Z,26.80
2018-09-13T11:34:47.428Z,27.60
2018-09-13T11:37:15.889Z,28.20
2018-09-13T11:39:44.323Z,28.90
2018-09-13T11:42:12.776Z,29.50
2018-09-13T11:44:41.212Z,30.20
2018-09-13T11:47:09.728Z,30.50
2018-09-13T11:49:38.171Z,31.20
2018-09-13T11:52:06.639Z,31.60
2018-09-13T11:54:35.090Z,31.70
2018-09-13T11:57:03.635Z,31.40
2018-09-13T11:59:32.103Z,30.80
2018-09-13T12:02:00.647Z,30.40
2018-09-13T12:04:29.043Z,30.20
2018-09-13T12:06:57.464Z,30.60
2018-09-13T12:09:26.012Z,30.40
2018-09-13T12:11:54.420Z,30.40
2018-09-13T12:14:22.891Z,30.40
2018-09-13T12:16:51.328Z,30.00
2018-09-13T12:19:19.812Z,29.80
2018-09-13T12:21:48.225Z,29.50
2018-09-13T12:24:16.652Z,29.00
2018-09-13T12:26:45.115Z,28.70
2018-09-13T12:29:13.540Z,28.30
2018-09-13T12:31:41.980Z,28.00
2018-09-13T12:34:10.437Z,27.60
2018-09-13T12:36:38.908Z,26.90
2018-09-13T12:39:09.925Z,26.60
2018-09-13T12:41:38.460Z,26.70
2018-09-13T12:44:06.940Z,26.90
2018-09-13T12:46:35.400Z,27.10
2018-09-13T12:49:03.967Z,27.10
2018-09-13T12:51:32.636Z,26.90
2018-09-13T12:54:01.593Z,26.40
2018-09-13T12:56:30.121Z,26.20
2018-09-13T12:58:58.617Z,26.10
2018-09-13T13:01:27.056Z,25.80
2018-09-13T13:03:55.502Z,25.80
2018-09-13T13:06:23.963Z,25.80
2018-09-13T13:08:52.475Z,25.80
2018-09-13T13:11:20.876Z,25.80
2018-09-13T13:13:49.360Z,25.50
2018-09-13T13:16:17.827Z,25.40
2018-09-13T13:18:46.263Z,25.40
2018-09-13T13:21:14.708Z,25.50
2018-09-13T13:23:43.140Z,25.50
2018-09-13T13:26:11.589Z,25.50
2018-09-13T13:28:40.017Z,25.50
2018-09-13T13:31:08.487Z,25.50
2018-09-13T13:33:36.912Z,25.50
2018-09-13T13:36:05.372Z,25.60
2018-09-13T13:38:34.153Z,25.60
2018-09-13T13:41:02.715Z,25.60
2018-09-13T13:43:31.209Z,25.70
2018-09-13T13:45:59.664Z,25.80
2018-09-13T13:48:28.140Z,25.80
2018-09-13T13:50:56.571Z,25.80
2018-09-13T13:53:25.023Z,25.80
2018-09-13T13:55:53.452Z,25.80
2018-09-13T13:58:21.902Z,26.00
2018-09-13T14:00:50.384Z,26.00
2018-09-13T14:03:18.839Z,26.00
2018-09-13T14:05:47.267Z,26.00
2018-09-13T14:08:15.700Z,25.90
2018-09-13T14:10:44.153Z,25.90
2018-09-13T14:13:12.611Z,26.10
2018-09-13T14:15:41.069Z,26.30
2018-09-13T14:18:09.517Z,26.40
2018-09-13T14:20:38.068Z,26.50
2018-09-13T14:23:06.528Z,26.50
2018-09-13T14:25:35.076Z,26.50
2018-09-13T14:28:04.286Z,26.40
2018-09-13T14:30:32.727Z,26.30
2018-09-13T14:33:01.184Z,26.10
2018-09-13T14:35:29.649Z,26.00
2018-09-13T14:37:58.083Z,25.90
2018-09-13T14:40:26.513Z,25.70
2018-09-13T14:42:54.960Z,25.60
2018-09-13T14:45:23.375Z,25.40
2018-09-13T14:47:51.825Z,25.30
2018-09-13T14:50:20.257Z,25.20
2018-09-13T14:52:48.703Z,25.30
2018-09-13T14:55:17.136Z,25.20
2018-09-13T14:57:45.568Z,25.20
2018-09-13T15:00:15.135Z,25.20
2018-09-13T15:02:43.622Z,25.20
2018-09-13T15:05:12.209Z,25.10
2018-09-13T15:07:40.707Z,25.00
2018-09-13T15:10:09.184Z,25.00
2018-09-13T15:12:37.715Z,24.90
2018-09-13T15:15:06.192Z,24.80
2018-09-13T15:17:34.636Z,24.60
2018-09-13T15:20:03.088Z,24.60
2018-09-13T15:22:31.690Z,24.60
2018-09-13T15:25:00.132Z,24.50
2018-09-13T15:27:28.580Z,24.50
2018-09-13T15:29:57.009Z,24.50
2018-09-13T15:32:25.460Z,24.50
2018-09-13T15:34:53.884Z,24.40
2018-09-13T15:37:22.353Z,24.40
2018-09-13T15:39:50.787Z,24.30
2018-09-13T15:42:19.303Z,24.30
2018-09-13T15:44:47.786Z,24.30
2018-09-13T15:47:16.255Z,24.20
2018-09-13T15:49:44.707Z,24.10
2018-09-13T15:52:13.135Z,24.00
2018-09-13T15:54:41.580Z,24.00
2018-09-13T15:57:10.039Z,23.90
2018-09-13T15:59:38.484Z,23.80
2018-09-13T16:02:06.987Z,23.80
2018-09-13T16:04:35.428Z,23.70
2018-09-13T16:07:03.867Z,23.60
2018-09-13T16:09:32.291Z,23.50
2018-09-13T16:12:00.748Z,23.50
2018-09-13T16:14:29.180Z,23.50
2018-09-13T16:16:57.628Z,23.50
2018-09-13T16:19:26.056Z,23.40
2018-09-13T16:21:54.531Z,23.30
2018-09-13T16:24:22.955Z,23.30
2018-09-13T16:26:51.411Z,23.30
2018-09-13T16:29:19.827Z,23.20
2018-09-13T16:31:48.535Z,23.10
2018-09-13T16:34:17.049Z,23.00
2018-09-13T16:36:50.688Z,23.00
2018-09-13T16:39:25.908Z,22.90
2018-09-13T16:41:59.703Z,22.90
2018-09-13T16:44:33.427Z,22.90
2018-09-13T16:47:07.594Z,22.80
2018-09-13T16:49:38.355Z,22.80
2018-09-13T16:52:06.870Z,22.80
2018-09-13T16:54:35.291Z,22.80
2018-09-13T16:57:03.782Z,22.70
2018-09-13T16:59:32.395Z,22.70
2018-09-13T17:02:00.867Z,22.60
2018-09-13T17:04:29.283Z,22.60
2018-09-13T17:06:57.729Z,22.50
2018-09-13T17:09:26.179Z,22.50
2018-09-13T17:11:54.609Z,22.40
2018-09-13T17:14:23.051Z,22.40
2018-09-13T17:16:51.508Z,22.30
2018-09-13T17:19:19.932Z,22.30
2018-09-13T17:21:48.371Z,22.30
2018-09-13T17:24:16.787Z,22.20
2018-09-13T17:26:45.231Z,22.10
2018-09-13T17:29:13.665Z,22.00
2018-09-13T17:31:42.128Z,21.90
2018-09-13T17:34:10.561Z,21.90
2018-09-13T17:36:38.979Z,21.80
2018-09-13T17:39:10.160Z,21.80
2018-09-13T17:41:38.828Z,21.80
2018-09-13T17:44:07.296Z,21.80
2018-09-13T17:46:35.719Z,21.70
2018-09-13T17:49:04.184Z,21.60
2018-09-13T17:51:32.611Z,21.60
2018-09-13T17:54:01.062Z,21.60
2018-09-13T17:56:29.524Z,21.60
2018-09-13T17:58:57.985Z,21.50
2018-09-13T18:01:26.427Z,21.50
2018-09-13T18:03:54.921Z,21.40
2018-09-13T18:06:23.748Z,21.40
2018-09-13T18:08:52.240Z,21.30
2018-09-13T18:11:20.692Z,21.30
2018-09-13T18:13:49.519Z,21.20
2018-09-13T18:16:18.179Z,21.10
2018-09-13T18:18:46.616Z,21.10
2018-09-13T18:21:15.069Z,21.00
2018-09-13T18:23:43.509Z,20.90
2018-09-13T18:26:11.963Z,20.90
2018-09-13T18:28:40.407Z,20.90
2018-09-13T18:31:08.855Z,20.80
2018-09-13T18:33:37.283Z,20.80
2018-09-13T18:36:05.789Z,20.80
2018-09-13T18:38:34.322Z,20.70
2018-09-13T18:41:02.767Z,20.70
2018-09-13T18:43:31.223Z,20.70
2018-09-13T18:45:59.707Z,20.60
2018-09-13T18:48:28.204Z,20.60
2018-09-13T18:50:56.743Z,20.50
2018-09-13T18:53:26.505Z,20.40
2018-09-13T18:55:54.996Z,20.40
2018-09-13T18:58:23.505Z,20.40
2018-09-13T19:00:51.948Z,20.40
2018-09-13T19:03:20.379Z,20.40
2018-09-13T19:05:48.837Z,20.30
2018-09-13T19:08:17.268Z,20.40
2018-09-13T19:10:45.732Z,20.30
2018-09-13T19:13:14.176Z,20.30
2018-09-13T19:15:42.657Z,20.30
2018-09-13T19:18:11.064Z,20.30
2018-09-13T19:20:40.440Z,20.20
2018-09-13T19:23:08.948Z,20.20
2018-09-13T19:25:37.454Z,20.20
2018-09-13T19:28:05.908Z,20.20
2018-09-13T19:30:34.337Z,20.10
2018-09-13T19:33:02.787Z,20.20
2018-09-13T19:35:31.232Z,20.20
2018-09-13T19:38:01.228Z,20.20
2018-09-13T19:40:29.684Z,20.10
2018-09-13T19:42:58.164Z,20.10
2018-09-13T19:45:26.619Z,20.10
2018-09-13T19:47:58.629Z,20.10
2018-09-13T19:50:27.174Z,20.00
2018-09-13T19:52:55.637Z,20.00
2018-09-13T19:55:24.116Z,20.00
2018-09-13T19:57:52.548Z,19.90
2018-09-13T20:00:21.011Z,19.90
2018-09-13T20:02:49.433Z,19.90
2018-09-13T20:05:17.994Z,19.90
2018-09-13T20:07:46.420Z,20.00
2018-09-13T20:10:14.945Z,20.00
2018-09-13T20:12:43.380Z,19.90
2018-09-13T20:15:11.868Z,19.90
2018-09-13T20:17:40.299Z,19.90
2018-09-13T20:20:08.767Z,19.90
2018-09-13T20:22:37.192Z,19.90
2018-09-13T20:25:07.146Z,19.90
2018-09-13T20:27:35.603Z,19.90
2018-09-13T20:30:05.544Z,19.90
2018-09-13T20:32:34.025Z,19.90
2018-09-13T20:35:02.495Z,19.90
2018-09-13T20:37:30.999Z,19.90
2018-09-13T20:39:59.468Z,19.90
2018-09-13T20:42:29.036Z,19.90
2018-09-13T20:44:57.542Z,19.90
2018-09-13T20:47:26.067Z,19.90
2018-09-13T20:49:54.574Z,19.90
2018-09-13T20:52:23.052Z,19.90
2018-09-13T20:54:53.250Z,19.90
2018-09-13T20:57:21.713Z,19.80
2018-09-13T20:59:50.128Z,19.90
2018-09-13T21:02:18.608Z,19.80
2018-09-13T21:04:47.043Z,19.80
2018-09-13T21:07:15.507Z,19.80
2018-09-13T21:09:43.928Z,19.80
2018-09-13T21:12:12.384Z,19.80
2018-09-13T21:14:40.880Z,19.80
2018-09-13T21:17:09.370Z,19.80
2018-09-13T21:19:37.800Z,19.70
2018-09-13T21:22:06.288Z,19.70
2018-09-13T21:24:35.292Z,19.70
2018-09-13T21:27:03.822Z,19.60
2018-09-13T21:29:32.333Z,19.60
2018-09-13T21:32:00.799Z,19.50
2018-09-13T21:34:29.717Z,19.50
2018-09-13T21:36:58.285Z,19.50
2018-09-13T21:39:26.809Z,19.50
2018-09-13T21:41:55.341Z,19.50
2018-09-13T21:44:23.791Z,19.50
2018-09-13T21:46:52.291Z,19.50
2018-09-13T21:49:20.747Z,19.40
2018-09-13T21:51:49.184Z,19.40
2018-09-13T21:54:17.645Z,19.30
2018-09-13T21:56:46.075Z,19.30
2018-09-13T21:59:14.544Z,19.30
2018-09-13T22:01:42.972Z,19.30
2018-09-13T22:04:11.423Z,19.30
2018-09-13T22:06:39.863Z,19.20
2018-09-13T22:09:10.267Z,19.20
2018-09-13T22:11:40.459Z,19.20
2018-09-13T22:14:08.899Z,19.20
2018-09-13T22:16:37.480Z,19.10
2018-09-13T22:19:06.023Z,19.10
2018-09-13T22:21:34.930Z,19.10
2018-09-13T22:24:04.196Z,19.10
2018-09-13T22:26:33.004Z,19.10
2018-09-13T22:29:01.453Z,19.10
2018-09-13T22:31:29.908Z,19.10
2018-09-13T22:33:58.343Z,19.10
2018-09-13T22:36:26.879Z,19.10
2018-09-13T22:38:55.336Z,19.10
2018-09-13T22:41:23.812Z,19.10
2018-09-13T22:43:53.376Z,19.10
2018-09-13T22:46:23.820Z,19.00
2018-09-13T22:48:56.085Z,19.00
2018-09-13T22:51:24.600Z,19.00
2018-09-13T22:53:53.099Z,19.00
2018-09-13T22:56:21.608Z,19.00
2018-09-13T22:58:50.092Z,19.00
2018-09-13T23:01:18.551Z,19.00
2018-09-13T23:03:47.048Z,18.90
2018-09-13T23:06:15.519Z,18.90
2018-09-13T23:08:43.968Z,18.90
2018-09-13T23:11:12.439Z,18.90
2018-09-13T23:13:40.893Z,18.90
2018-09-13T23:16:09.587Z,18.90
2018-09-13T23:18:37.824Z,18.90
2018-09-13T23:21:06.288Z,18.80
2018-09-13T23:23:34.748Z,18.80
2018-09-13T23:26:03.193Z,18.80
2018-09-13T23:28:31.698Z,18.80
2018-09-13T23:31:00.145Z,18.80
2018-09-13T23:33:28.644Z,18.80
2018-09-13T23:35:57.103Z,18.80
2018-09-13T23:38:25.555Z,18.80
2018-09-13T23:40:54.048Z,18.70
2018-09-13T23:43:22.515Z,18.70
2018-09-13T23:45:50.932Z,18.70
2018-09-13T23:48:19.351Z,18.70
2018-09-13T23:50:47.799Z,18.70
2018-09-13T23:53:16.243Z,18.60
2018-09-13T23:55:44.684Z,18.60
2018-09-13T23:58:13.115Z,18.60
